PILOTS ONLINE: 313    ATC ONLINE: 34

CYSY

Sachs Harbour (David Nasogaluak Jr. Saaryuaq) Airport

Location

IATA YSY
City Sachs Harbour
Country  Canada
Latitude 71° 59' 38" N
Longitude 125° 14' 34" W
Elevation 282 ft
Type Medium Airport

Map

Weather

METAR
2014/10/21 23:00
CYSY 212300Z 07028KT 10SM FEW050 M19/M22 A3006 RMK SC2 1.0/0.0/ MED PACK LAST OBS/NEXT 221300Z SLP192
TAF
2014/10/21 19:00
TAF CYSY 211838Z 2119/2123 06030KT P6SM FEW080 
      TEMPO 2119/2123 4SM BLSN 
      RMK NXT FCST WILL BE ISSUED AT 221445Z

Runways

08T/26T 4000 ft / 100 ft

Outbound flights

Callsign Flying to Pilot ATD/STD ETA Aircraft

Inbound flights

Callsign Flying from Pilot ATD ETA Aircraft